AirNav   Everest Fuels
 
 981 users online  

P33 Cochise County Airport
Willcox, Arizona, USA

GOING TO WILLCOX?


FAA INFORMATION EFFECTIVE 16 JULY 2020

Location

FAA Identifier: P33
Lat/Long: 32-14-43.5000N 109-53-40.7000W
32-14.725000N 109-53.678333W
32.2454167,-109.8946389
(estimated)
Elevation: 4187.3 ft. / 1276.3 m (surveyed)
Variation: 11E (1995)
From city: 3 miles W of WILLCOX, AZ
Time zone: UTC -7 (year round; does not observe DST)
Zip code: 85643

Airport Operations

Airport use: Open to the public
Activation date: 03/1945
Control tower: no
ARTCC: ALBUQUERQUE CENTER
FSS: PRESCOTT FLIGHT SERVICE STATION
NOTAMs facility: PRC (NOTAM-D service available)
Attendance: 0800-1700, CLSD HOLS
Wind indicator: lighted
Segmented circle: yes
Lights: ACTVT MIRL RY 03/21 - CTAF.
Beacon: white-green (lighted land airport)
Operates sunset to sunrise.

Airport Communications

CTAF/UNICOM: 122.8
  • APCH/DEP SVC PRVDD BY ALBUQUERQUE ARTCC ON FREQUENCIES 134.45/327.15 (TUCSON RCAG).

Nearby radio navigation aids

VOR radial/distance  VOR name  Freq  Var
SSOr254/32.1SAN SIMON VORTAC115.4013E

Airport Services

Fuel available: 100LL JET-A1+
Parking: hangars and tiedowns
Airframe service: MINOR
Powerplant service: MINOR
Bottled oxygen: NONE
Bulk oxygen: NONE

Runway Information

Runway 3/21

Dimensions: 6095 x 75 ft. / 1858 x 23 m
Surface: asphalt, in good condition
Weight bearing capacity: 
Single wheel: 50.0
Double wheel: 75.0
Double tandem: 135.0
Runway edge lights: medium intensity
RUNWAY 3  RUNWAY 21
Latitude: 32-14.370435N32-15.078537N
Longitude: 109-54.097340W109-53.258255W
Elevation: 4182.0 ft.4185.7 ft.
Traffic pattern: leftleft
Runway heading: 034 magnetic, 045 true214 magnetic, 225 true
Markings: nonprecision, in good conditionnonprecision, in good condition
Runway end identifier lights: nono
Touchdown point: yes, no lightsyes, no lights

Airport Ownership and Management from official FAA records

Ownership: Publicly-owned
Owner: COCHISE COUNTY
1415 W MELODY LANE
BISBEE, AZ 85603
Phone 520-432-5471
Manager: LOUISE WALDEN
780 S VISTA AVE
WILCOX, AZ 85643
Phone (520) 384-2908

Airport Operational Statistics

Aircraft based on the field: 22
Single engine airplanes: 21
Helicopters: 1
    
Aircraft operations: avg 27/day *
75% transient general aviation
15% local general aviation
10% military
* for 12-month period ending 27 March 2020

Additional Remarks

MILITARY TFC NEAR AIRPORT
SOUTH HALF OF PARALLEL TAXIWAY TO RUNWAY 03 IN FAILED CONDITION.
PREFERRED CALM WIND RY 21.
FOR CD CTC ALBUQUERQUE ARTCC AT 505-856-4861.

Instrument Procedures

NOTE: All procedures below are presented as PDF files. If you need a reader for these files, you should download the free Adobe Reader.

NOT FOR NAVIGATION. Please procure official charts for flight.
FAA instrument procedures published for use from 16 July 2020 at 0901Z to 13 August 2020 at 0900Z.

 
IAPs - Instrument Approach Procedures
RNAV (GPS) RWY 03   download (261KB)
RNAV (GPS) RWY 21   download (289KB)
 
COCHISE ONE (OBSTACLE)   download (158KB)
NOTE: Special Take-Off Minimums/Departure Procedures apply   download (113KB)

Other nearby airports with instrument procedures:

KSAD - Safford Regional Airport (39 nm N)
KFHU - Sierra Vista Municipal Airport-Libby Army Airfield (46 nm SW)
KDUG - Bisbee Douglas International Airport (49 nm S)
KDMA - Davis Monthan Air Force Base (50 nm W)
KTUS - Tucson International Airport (54 nm W)
 
Loc | Ops | Rwys | IFR | FBO | Links
Com | Nav | Svcs | Stats | Notes
Area around P33 (Cochise County Airport)
 
Road maps at: MapQuest Bing Google
 
Aerial photo
WARNING: Photo may not be current or correct
Aerial photo of P33 (Cochise County Airport)
Photo by Trent Thomas
Photo taken 27-Apr-2016
looking south-southwest.

Do you have a better or more recent aerial photo of Cochise County Airport that you would like to share? If so, please send us your photo.

 
Sectional chart

 
Airport distance calculator
Flying to Cochise County Airport? Find the distance to fly.

From to P33

Sunrise and sunset
Times for 09-Aug-2020
 Local
(UTC-7)
 Zulu
(UTC)
Morning civil twilight05:1512:15
Sunrise05:4112:41
Sunset19:0802:08
Evening civil twilight19:3402:34

Current date and time
Zulu (UTC)  10-Aug-2020 01:43:58
Local (UTC-7)  09-Aug-2020 18:43:58
 
METAR
KSAD 
39nm N 
100051Z AUTO 27009G16KT 10SM CLR 39/06 A2990 RMK AO2 SLP060 T03940061
KFHU 
45nm SW 
092358Z AUTO 18009KT 10SM OVC150 34/07 A3011 RMK AO2 SLP113 60000 T03350067 10352 20269 56012
KALK 
47nm SW 
100056Z AUTO 15005KT 10SM CLR 33/06 A3011 RMK AO2 SLP091 T03280061
KDUG 
49nm S 
091655Z 00000KT 7SM CLR 32/05 A3021 RMK SLP141 T03170052
KDMA 
50nm W 
092358Z AUTO 33009G20KT 10SM CLR 41/04 A2990 RMK AO2 SLP073 T04050043 10413 20362 56014 FZRANO $
TAF
KDMA 
50nm W 
092202Z 0922/1104 31009KT 9999 SCT120 QNH2990INS TEMPO 0922/1002 31012G18KT BECMG 1006/1007 VRB06KT 9999 SKC QNH2996INS TX40/0922Z TN25/1012Z
NOTAMs
Click for the latest NOTAMs
NOTAMs are issued by the DoD/FAA and will open in a separate window not controlled by AirNav.

 

 
 

FBO, Fuel Providers, and Aircraft Ground Support

  
 Business Name 
 
 Contact 
 
 Services / Description 
 
Fuel Prices
 
Comments
  
Walden Aviation 520-384-2908
[email]
Airport management, Aviation fuel, Aircraft parking (ramp or tiedown), Passenger terminal and lounge, Pilot supplies, Pilots lounge / snooze room, ...

More info about Walden Aviation
Phillips 66
100LL Jet A
PS $4.75 $4.00 
 Updated 28-Jul-2020
 
   2 read write
PS=Pump service
Update Fuel Prices
 

Would you like to see your business listed on this page?

 If your business provides an interesting product or service to pilots, flight crews, aircraft, or users of the Cochise County Airport, you should consider listing it here.  To start the listing process, click on the button below
 
Add a business
 

Other Pages about Cochise County Airport

Update a link
 
Copyright © AirNav, LLC. All rights reserved. Privacy Policy  Contact